Time;durP1;ratioP1;P1;durP2;ratioP2;P2;SDS_P1;SDS_P2;PMS_P1;PMS_P2;Temp;Humidity;BMP_temperature;BMP_pressure;BME280_temperature;BME280_humidity;BME280_pressure;Samples;Min_cycle;Max_cycle;Signal;HPM_P1;HPM_P2
2023/04/18 00:05:07;;;;;;;20.57;13.50;;;8.20;94.00;;;;;;20918014;28;20230;-70
2023/04/18 00:15:10;;;;;;;18.63;13.30;;;8.30;94.20;;;;;;20917011;28;20201;-66
2023/04/18 00:25:12;;;;;;;16.47;12.27;;;8.40;94.20;;;;;;20916144;28;20248;-69
2023/04/18 00:35:13;;;;;;;18.87;13.47;;;8.50;94.30;;;;;;20914966;28;20211;-70
2023/04/18 00:45:15;;;;;;;16.03;11.80;;;8.50;94.30;;;;;;20914587;28;20230;-68
2023/04/18 00:55:17;;;;;;;17.07;12.73;;;8.50;94.30;;;;;;20914635;28;20212;-69
2023/04/18 01:05:20;;;;;;;17.47;11.73;;;8.60;94.30;;;;;;20913307;28;20230;-69
2023/04/18 01:15:21;;;;;;;18.73;11.97;;;8.60;94.20;;;;;;20912916;28;20211;-69
2023/04/18 01:25:23;;;;;;;17.40;11.87;;;8.70;94.20;;;;;;20912721;28;20263;-70
2023/04/18 01:35:25;;;;;;;21.17;12.13;;;8.60;93.90;;;;;;20912179;28;20207;-66
2023/04/18 01:45:26;;;;;;;17.03;12.43;;;8.60;93.90;;;;;;20911594;28;20237;-66
2023/04/18 01:55:28;;;;;;;16.90;11.77;;;8.50;93.60;;;;;;20928230;28;20206;-66
2023/04/18 02:05:30;;;;;;;14.87;10.83;;;8.50;93.70;;;;;;20927122;28;20277;-67
2023/04/18 02:15:32;;;;;;;15.23;11.13;;;8.50;93.60;;;;;;20925275;28;20205;-69
2023/04/18 02:25:34;;;;;;;17.47;11.73;;;8.40;93.60;;;;;;20925733;28;20235;-70
2023/04/18 02:35:37;;;;;;;14.20;10.83;;;8.40;93.70;;;;;;20924940;28;20208;-70
2023/04/18 02:45:39;;;;;;;16.93;11.97;;;8.40;93.70;;;;;;20924042;28;20234;-70
2023/04/18 02:55:41;;;;;;;17.57;11.40;;;8.40;93.80;;;;;;20923608;28;20214;-70
2023/04/18 03:05:42;;;;;;;15.87;11.80;;;8.40;93.80;;;;;;20920993;28;20234;-70
2023/04/18 03:15:44;;;;;;;16.20;11.60;;;;;;;;;;20921989;28;20609;-70
2023/04/18 03:25:46;;;;;;;16.00;12.10;;;8.70;93.70;;;;;;20919875;28;20239;-70
2023/04/18 03:35:48;;;;;;;16.03;12.40;;;8.80;93.70;;;;;;20920339;28;20214;-70
2023/04/18 03:45:50;;;;;;;17.50;12.17;;;8.90;93.70;;;;;;20920071;28;20288;-69
2023/04/18 03:55:51;;;;;;;16.03;12.00;;;8.90;93.50;;;;;;20919410;28;20266;-70
2023/04/18 04:05:53;;;;;;;16.33;11.93;;;9.00;93.50;;;;;;20917976;28;20603;-70
2023/04/18 04:15:56;;;;;;;17.30;11.90;;;9.10;93.50;;;;;;20916306;28;20209;-70
2023/04/18 04:26:01;;;;;;;15.53;12.00;;;9.20;93.50;;;;;;20916356;28;20277;-69
2023/04/18 04:36:07;;;;;;;18.13;12.33;;;9.20;93.40;;;;;;20915941;28;20705;-68
2023/04/18 04:46:12;;;;;;;16.93;12.27;;;9.40;93.50;;;;;;20914838;28;20242;-70
2023/04/18 04:56:14;;;;;;;19.23;11.80;;;9.40;93.40;;;;;;20914119;28;20241;-69
2023/04/18 05:06:22;;;;;;;18.93;11.70;;;9.40;93.40;;;;;;20913355;28;20773;-70
2023/04/18 05:16:23;;;;;;;15.97;11.10;;;9.50;93.30;;;;;;20912694;28;20265;-68
2023/04/18 05:26:25;;;;;;;14.70;10.33;;;9.50;93.40;;;;;;20911514;28;20335;-69
2023/04/18 05:36:27;;;;;;;16.50;11.00;;;9.60;93.50;;;;;;20911814;28;20213;-68
2023/04/18 05:46:29;;;;;;;17.13;11.27;;;9.60;93.50;;;;;;20911151;28;20641;-68
2023/04/18 05:56:31;;;;;;;19.00;11.33;;;9.80;93.60;;;;;;20910573;28;20658;-69
2023/04/18 06:06:33;;;;;;;16.23;10.57;;;9.90;93.60;;;;;;20910843;28;20235;-69
2023/04/18 06:16:37;;;;;;;15.57;11.13;;;9.90;93.70;;;;;;20909933;28;20212;-69
2023/04/18 06:26:39;;;;;;;15.33;11.00;;;10.00;93.30;;;;;;20909445;28;20245;-69
2023/04/18 06:36:41;;;;;;;13.20;9.50;;;10.20;93.50;;;;;;20918382;28;20273;-67
2023/04/18 06:50:04;;;;;;;13.73;8.87;;;10.30;93.60;;;;;;20983944;28;20562;-67
2023/04/18 07:00:06;;;;;;;11.40;8.43;;;10.40;93.60;;;;;;20982565;28;20267;-69
2023/04/18 07:10:10;;;;;;;12.23;8.47;;;10.40;93.80;;;;;;20982295;28;20273;-66
2023/04/18 07:20:12;;;;;;;10.37;7.57;;;10.70;93.70;;;;;;20980194;28;20275;-68
2023/04/18 07:30:15;;;;;;;10.20;7.13;;;10.90;93.70;;;;;;20979387;28;20214;-68
2023/04/18 07:40:16;;;;;;;9.83;7.33;;;11.30;93.50;;;;;;20979143;28;20245;-65
2023/04/18 07:50:18;;;;;;;11.10;7.10;;;11.30;93.10;;;;;;20977650;28;20611;-66
2023/04/18 08:00:20;;;;;;;8.93;6.97;;;11.40;93.10;;;;;;20928959;28;20209;-65
2023/04/18 08:10:22;;;;;;;8.57;6.53;;;11.60;93.00;;;;;;20922676;28;20659;-68
2023/04/18 08:20:24;;;;;;;7.97;6.07;;;12.00;92.80;;;;;;20921990;28;20632;-65
2023/04/18 08:30:26;;;;;;;6.83;5.77;;;12.00;93.00;;;;;;20921343;28;20211;-66
2023/04/18 08:40:29;;;;;;;7.27;5.47;;;12.50;91.90;;;;;;20919956;28;20228;-66
2023/04/18 08:50:31;;;;;;;7.47;5.40;;;12.50;91.50;;;;;;20918787;28;20614;-66
2023/04/18 09:00:33;;;;;;;10.10;5.83;;;12.90;91.60;;;;;;20918435;28;20234;-67
2023/04/18 09:10:35;;;;;;;7.00;5.63;;;13.10;91.00;;;;;;20916516;28;20209;-67
2023/04/18 09:20:42;;;;;;;9.20;6.47;;;13.10;90.70;;;;;;20917336;28;20750;-68
2023/04/18 09:30:45;;;;;;;10.20;6.03;;;13.00;90.70;;;;;;20916282;28;20245;-67
2023/04/18 09:41:06;;;;;;;7.13;5.53;;;13.30;90.40;;;;;;20915200;28;20236;-68
2023/04/18 09:51:15;;;;;;;10.43;6.00;;;13.60;90.30;;;;;;20914984;28;20300;-67
2023/04/18 10:01:17;;;;;;;7.03;5.70;;;13.80;89.50;;;;;;20913699;28;20646;-69
2023/04/18 10:11:19;;;;;;;7.00;5.80;;;14.10;88.60;;;;;;20913023;28;20212;-67
2023/04/18 10:21:21;;;;;;;6.57;5.73;;;14.10;89.20;;;;;;20912734;28;20771;-70
2023/04/18 10:31:24;;;;;;;8.27;6.50;;;14.50;86.20;;;;;;20912160;28;20205;-70
2023/04/18 10:41:27;;;;;;;10.50;6.67;;;14.60;85.70;;;;;;20911448;28;20243;-68
2023/04/18 10:51:29;;;;;;;7.23;6.37;;;14.70;85.00;;;;;;20911427;28;20261;-68
2023/04/18 11:01:33;;;;;;;8.23;6.50;;;14.70;85.50;;;;;;20910767;28;20274;-69
2023/04/18 11:11:35;;;;;;;12.80;7.13;;;14.50;84.60;;;;;;20910683;28;20539;-70
2023/04/18 11:21:36;;;;;;;8.70;6.90;;;14.70;84.70;;;;;;20910551;28;20292;-69
2023/04/18 11:31:38;;;;;;;9.67;7.33;;;14.80;84.60;;;;;;20918212;28;20663;-68
2023/04/18 11:41:40;;;;;;;11.13;7.07;;;14.70;84.30;;;;;;20924952;28;20242;-70
2023/04/18 11:51:45;;;;;;;10.03;6.77;;;14.70;85.00;;;;;;20923881;28;20211;-68
2023/04/18 12:01:46;;;;;;;9.30;6.43;;;15.30;81.50;;;;;;20923341;28;20268;-67
2023/04/18 12:12:01;;;;;;;7.83;6.30;;;15.40;79.60;;;;;;20922323;28;20311;-67
2023/04/18 12:22:06;;;;;;;9.10;6.30;;;15.70;78.70;;;;;;20921430;28;20244;-67
2023/04/18 12:32:08;;;;;;;11.47;6.40;;;15.90;77.90;;;;;;20919641;28;20207;-68
2023/04/18 12:42:10;;;;;;;7.40;6.57;;;16.20;77.20;;;;;;20919131;28;20244;-67
2023/04/18 12:52:11;;;;;;;9.83;7.40;;;16.40;77.00;;;;;;20919098;28;20205;-68
2023/04/18 13:02:13;;;;;;;7.90;6.10;;;16.30;76.70;;;;;;20918289;28;20237;-67
2023/04/18 13:12:15;;;;;;;9.10;6.20;;;16.50;74.60;;;;;;20917420;28;20232;-70
2023/04/18 13:22:18;;;;;;;7.37;5.80;;;16.70;74.10;;;;;;20917028;28;20602;-69
2023/04/18 13:32:20;;;;;;;7.27;6.07;;;16.90;73.90;;;;;;20916157;28;20207;-70
2023/04/18 13:42:22;;;;;;;7.07;4.80;;;17.70;70.50;;;;;;20914385;28;20253;-70
2023/04/18 13:52:24;;;;;;;8.27;4.87;;;17.70;71.00;;;;;;20913771;28;20210;-70
2023/04/18 14:02:26;;;;;;;5.27;4.40;;;24.10;55.60;;;;;;20913699;28;20758;-69
2023/04/18 14:12:27;;;;;;;5.93;4.30;;;21.60;55.00;;;;;;20913056;28;20226;-69
2023/04/18 14:22:29;;;;;;;9.10;4.70;;;21.50;55.70;;;;;;20901025;28;20644;-69
2023/04/18 14:32:31;;;;;;;6.90;5.00;;;17.70;59.10;;;;;;20876096;28;20290;-69
2023/04/18 14:42:33;;;;;;;9.60;4.80;;;17.00;60.30;;;;;;20856348;28;20255;-71
2023/04/18 14:52:35;;;;;;;8.67;5.47;;;16.00;63.20;;;;;;20829480;28;20204;-69
2023/04/18 15:02:37;;;;;;;6.43;5.70;;;16.10;64.10;;;;;;20907751;28;20230;-69
2023/04/18 15:12:39;;;;;;;8.00;5.50;;;17.20;65.30;;;;;;20926696;28;20663;-69
2023/04/18 15:22:40;;;;;;;9.30;7.03;;;16.90;67.00;;;;;;20925722;28;20259;-69
2023/04/18 15:32:42;;;;;;;8.20;6.47;;;16.70;66.40;;;;;;20879704;28;20571;-70
2023/04/18 15:42:44;;;;;;;8.80;7.03;;;16.60;66.60;;;;;;20842117;28;20276;-70
2023/04/18 15:52:46;;;;;;;9.60;7.60;;;16.10;66.50;;;;;;20840691;28;20701;-69
2023/04/18 16:02:48;;;;;;;9.73;7.67;;;15.80;67.60;;;;;;20840052;28;20598;-69
2023/04/18 16:12:50;;;;;;;10.80;8.50;;;14.90;69.80;;;;;;20891023;28;20248;-69
2023/04/18 16:22:52;;;;;;;12.57;9.17;;;14.60;71.40;;;;;;21003521;28;20243;-73
2023/04/18 16:32:54;;;;;;;15.30;8.90;;;14.30;73.00;;;;;;21004308;28;20206;-68
2023/04/18 16:42:56;;;;;;;11.77;9.30;;;14.40;74.10;;;;;;21001825;28;20316;-71
2023/04/18 16:52:58;;;;;;;11.83;9.60;;;14.30;74.30;;;;;;20964893;28;20248;-75
2023/04/18 17:03:00;;;;;;;13.77;9.37;;;14.30;74.90;;;;;;20883720;28;20294;-73
2023/04/18 17:13:02;;;;;;;12.90;9.70;;;14.00;76.60;;;;;;20868505;28;20573;-69
2023/04/18 17:23:03;;;;;;;14.30;9.93;;;13.90;77.10;;;;;;20835552;28;20282;-72
2023/04/18 17:33:05;;;;;;;15.13;10.30;;;;;;;;;;20907359;28;20664;-70
2023/04/18 17:43:07;;;;;;;13.80;10.10;;;13.20;79.70;;;;;;20915512;28;20277;-70
2023/04/18 17:53:11;;;;;;;13.87;10.27;;;13.10;81.10;;;;;;20913215;28;20206;-69
2023/04/18 18:03:13;;;;;;;16.80;11.50;;;13.10;81.70;;;;;;20871111;28;20235;-75
2023/04/18 18:13:15;;;;;;;16.17;11.53;;;12.90;82.90;;;;;;20829639;28;20212;-73
2023/04/18 18:23:17;;;;;;;15.63;11.30;;;12.80;84.00;;;;;;20830970;28;20243;-67
2023/04/18 18:33:18;;;;;;;12.03;9.20;;;12.90;84.70;;;;;;20830321;28;20211;-67
2023/04/18 18:43:25;;;;;;;11.33;8.73;;;12.60;85.10;;;;;;20829492;28;20252;-72
2023/04/18 18:53:26;;;;;;;13.67;9.23;;;12.50;86.00;;;;;;20830039;28;20311;-73
2023/04/18 19:03:28;;;;;;;12.10;8.73;;;12.40;86.60;;;;;;20872050;28;20223;-73
2023/04/18 19:13:30;;;;;;;12.07;8.80;;;12.30;87.20;;;;;;20911088;28;20239;-67
2023/04/18 19:23:32;;;;;;;11.40;7.87;;;12.20;87.70;;;;;;20910912;28;20236;-66
2023/04/18 19:33:33;;;;;;;11.50;8.07;;;12.30;88.50;;;;;;20882834;28;20242;-66
2023/04/18 19:43:37;;;;;;;10.20;7.60;;;12.00;89.00;;;;;;20868550;28;20305;-65
2023/04/18 19:53:38;;;;;;;9.33;7.60;;;12.00;89.70;;;;;;20847110;28;20547;-66
2023/04/18 20:12:26;;;;;;;9.30;7.10;;;11.80;90.20;;;;;;20899656;28;21073;-70
2023/04/18 20:22:28;;;;;;;10.53;7.07;;;11.70;90.30;;;;;;20898395;28;20210;-72
2023/04/18 20:32:29;;;;;;;8.33;6.80;;;11.70;90.70;;;;;;20897958;28;20260;-70
2023/04/18 20:42:31;;;;;;;9.30;6.83;;;11.60;90.70;;;;;;20901030;28;20204;-71
2023/04/18 20:52:33;;;;;;;8.93;7.00;;;11.60;90.90;;;;;;20896269;28;20277;-70
2023/04/18 21:02:35;;;;;;;10.87;7.47;;;11.60;90.80;;;;;;20891654;28;20579;-63
2023/04/18 21:12:39;;;;;;;9.13;7.17;;;11.60;91.00;;;;;;20895605;28;20615;-64
2023/04/18 21:22:41;;;;;;;8.97;6.60;;;11.60;91.10;;;;;;20847828;28;20211;-66
2023/04/18 21:32:42;;;;;;;8.37;6.77;;;11.50;91.30;;;;;;20840786;28;20253;-65
2023/04/18 21:42:44;;;;;;;10.63;6.67;;;11.60;91.60;;;;;;20839669;28;20621;-64
2023/04/18 21:52:48;;;;;;;10.63;7.40;;;11.60;91.60;;;;;;20839574;28;20260;-65
2023/04/18 22:02:50;;;;;;;8.93;6.60;;;11.60;92.20;;;;;;20834921;28;20258;-66
2023/04/18 22:12:54;;;;;;;10.63;6.37;;;11.60;92.00;;;;;;20837309;28;20299;-65
2023/04/18 22:22:56;;;;;;;9.23;6.50;;;11.50;91.90;;;;;;20837308;28;20224;-71
2023/04/18 22:32:58;;;;;;;7.93;6.43;;;11.50;92.20;;;;;;20835141;28;20219;-64
2023/04/18 22:43:00;;;;;;;8.50;6.17;;;;;;;;;;20835377;28;20236;-64
2023/04/18 22:53:02;;;;;;;9.00;6.23;;;11.50;92.20;;;;;;20835875;28;20208;-65
2023/04/18 23:03:04;;;;;;;7.93;6.13;;;11.50;92.40;;;;;;20833814;28;20240;-65
2023/04/18 23:13:06;;;;;;;8.03;5.80;;;11.50;92.20;;;;;;20833210;28;20217;-64
2023/04/18 23:23:08;;;;;;;6.83;5.60;;;11.50;92.40;;;;;;20832510;28;20236;-64
2023/04/18 23:33:09;;;;;;;7.97;6.07;;;11.40;92.40;;;;;;20832135;28;20352;-65
2023/04/18 23:43:11;;;;;;;7.73;5.63;;;11.50;92.50;;;;;;20831011;28;20304;-65
2023/04/18 23:53:13;;;;;;;10.67;6.20;;;11.40;92.60;;;;;;20830777;28;20663;-65
